createdAt,value
2018-12-22T00:02:25.827Z,6.13
2018-12-22T00:04:53.292Z,6.00
2018-12-22T00:07:20.749Z,6.40
2018-12-22T00:09:48.225Z,6.03
2018-12-22T00:12:15.728Z,5.70
2018-12-22T00:14:43.156Z,6.27
2018-12-22T00:17:10.611Z,6.80
2018-12-22T00:19:38.038Z,6.30
2018-12-22T00:22:05.494Z,6.03
2018-12-22T00:24:32.897Z,7.27
2018-12-22T00:27:00.296Z,5.77
2018-12-22T00:29:27.695Z,6.67
2018-12-22T00:31:56.127Z,6.77
2018-12-22T00:34:23.507Z,6.27
2018-12-22T00:36:50.918Z,7.03
2018-12-22T00:39:18.375Z,6.83
2018-12-22T00:41:45.772Z,5.80
2018-12-22T00:44:13.192Z,4.93
2018-12-22T00:46:40.620Z,6.67
2018-12-22T00:49:08.083Z,6.60
2018-12-22T00:51:35.461Z,6.00
2018-12-22T00:54:02.924Z,5.03
2018-12-22T00:56:30.407Z,5.97
2018-12-22T00:58:57.800Z,5.73
2018-12-22T01:01:25.249Z,6.50
2018-12-22T01:03:52.672Z,5.83
2018-12-22T01:06:20.151Z,5.00
2018-12-22T01:08:47.593Z,6.37
2018-12-22T01:11:14.984Z,6.13
2018-12-22T01:13:42.500Z,6.37
2018-12-22T01:16:09.989Z,6.13
2018-12-22T01:18:37.416Z,4.00
2018-12-22T01:21:05.004Z,5.33
2018-12-22T01:23:32.450Z,4.90
2018-12-22T01:25:59.890Z,5.93
2018-12-22T01:28:27.282Z,4.57
2018-12-22T01:30:54.713Z,4.80
2018-12-22T01:33:22.114Z,6.53
2018-12-22T01:35:49.616Z,5.47
2018-12-22T01:38:17.977Z,4.47
2018-12-22T01:40:45.404Z,5.27
2018-12-22T01:43:12.800Z,4.33
2018-12-22T01:45:40.245Z,5.10
2018-12-22T01:48:07.625Z,4.57
2018-12-22T01:50:35.047Z,3.87
2018-12-22T01:53:02.448Z,5.00
2018-12-22T01:55:29.844Z,5.10
2018-12-22T01:57:57.246Z,5.80
2018-12-22T02:00:24.659Z,5.60
2018-12-22T02:02:52.048Z,6.97
2018-12-22T02:05:19.475Z,5.70
2018-12-22T02:07:46.890Z,6.00
2018-12-22T02:10:29.136Z,4.17
2018-12-22T02:12:56.675Z,4.10
2018-12-22T02:15:24.048Z,5.33
2018-12-22T02:17:51.435Z,2.23
2018-12-22T02:20:18.853Z,2.43
2018-12-22T02:22:46.261Z,3.50
2018-12-22T02:25:13.687Z,2.97
2018-12-22T02:27:41.103Z,3.07
2018-12-22T02:30:08.638Z,4.43
2018-12-22T02:32:36.047Z,3.73
2018-12-22T02:35:03.706Z,5.80
2018-12-22T02:37:31.122Z,6.10
2018-12-22T02:39:58.506Z,3.47
2018-12-22T02:42:25.948Z,6.03
2018-12-22T02:44:53.354Z,5.97
2018-12-22T02:47:20.717Z,4.13
2018-12-22T02:49:48.132Z,4.10
2018-12-22T02:52:15.603Z,3.77
2018-12-22T02:54:42.983Z,2.77
2018-12-22T02:57:10.409Z,2.80
2018-12-22T02:59:37.846Z,2.27
2018-12-22T03:02:19.912Z,1.90
2018-12-22T03:04:47.317Z,2.37
2018-12-22T03:07:14.807Z,2.33
2018-12-22T03:09:42.344Z,2.00
2018-12-22T03:12:09.715Z,2.00
2018-12-22T03:14:37.102Z,1.93
2018-12-22T03:17:04.613Z,1.97
2018-12-22T03:19:31.983Z,3.00
2018-12-22T03:21:59.398Z,5.23
2018-12-22T03:24:39.021Z,2.20
2018-12-22T03:27:06.447Z,2.40
2018-12-22T03:29:34.036Z,2.93
2018-12-22T03:32:01.451Z,2.60
2018-12-22T03:34:28.838Z,3.23
2018-12-22T03:36:56.235Z,3.00
2018-12-22T03:39:23.684Z,3.10
2018-12-22T03:41:51.081Z,2.67
2018-12-22T03:44:18.513Z,4.17
2018-12-22T03:46:45.914Z,4.53
2018-12-22T03:49:13.304Z,3.50
2018-12-22T03:51:40.731Z,2.60
2018-12-22T03:54:08.125Z,2.77
2018-12-22T03:56:35.506Z,2.40
2018-12-22T03:59:03.042Z,2.70
2018-12-22T04:01:30.407Z,3.07
2018-12-22T04:03:57.798Z,2.67
2018-12-22T04:06:25.204Z,3.70
2018-12-22T04:08:52.597Z,3.17
2018-12-22T04:11:20.007Z,3.13
2018-12-22T04:13:47.458Z,2.53
2018-12-22T04:16:14.839Z,3.00
2018-12-22T04:18:42.241Z,2.40
2018-12-22T04:21:09.637Z,2.37
2018-12-22T04:23:37.038Z,2.57
2018-12-22T04:26:04.413Z,2.87
2018-12-22T04:28:31.799Z,3.53
2018-12-22T04:30:59.232Z,2.70
2018-12-22T04:33:26.655Z,2.57
2018-12-22T04:35:54.053Z,2.40
2018-12-22T04:38:21.477Z,3.47
2018-12-22T04:40:48.877Z,3.63
2018-12-22T04:43:16.257Z,2.33
2018-12-22T04:45:43.655Z,3.10
2018-12-22T04:48:11.045Z,3.37
2018-12-22T04:50:38.454Z,3.40
2018-12-22T04:53:05.855Z,3.23
2018-12-22T04:55:33.258Z,3.03
2018-12-22T04:58:00.677Z,2.97
2018-12-22T05:00:28.099Z,3.30
2018-12-22T05:02:55.485Z,5.53
2018-12-22T05:05:22.907Z,3.27
2018-12-22T05:07:50.370Z,1.40
2018-12-22T05:10:17.819Z,2.77
2018-12-22T05:12:45.246Z,3.13
2018-12-22T05:15:12.703Z,4.60
2018-12-22T05:17:40.094Z,2.47
2018-12-22T05:20:07.492Z,3.70
2018-12-22T05:22:34.939Z,3.50
2018-12-22T05:25:02.537Z,4.00
2018-12-22T05:27:30.034Z,3.83
2018-12-22T05:29:57.459Z,3.20
2018-12-22T05:32:24.893Z,4.20
2018-12-22T05:34:52.306Z,4.10
2018-12-22T05:37:19.668Z,3.57
2018-12-22T05:39:47.133Z,4.07
2018-12-22T05:42:14.550Z,3.20
2018-12-22T05:44:42.051Z,4.60
2018-12-22T05:47:09.465Z,2.77
2018-12-22T05:49:36.838Z,3.60
2018-12-22T05:52:04.336Z,2.17
2018-12-22T05:54:31.817Z,3.00
2018-12-22T05:56:59.265Z,2.97
2018-12-22T05:59:26.639Z,2.67
2018-12-22T06:01:54.053Z,2.97
2018-12-22T06:04:21.454Z,2.37
2018-12-22T06:06:48.859Z,1.67
2018-12-22T06:09:16.250Z,1.87
2018-12-22T06:11:43.654Z,1.70
2018-12-22T06:14:11.059Z,0.90
2018-12-22T06:16:38.464Z,2.00
2018-12-22T06:19:05.845Z,1.30
2018-12-22T06:21:33.263Z,2.13
2018-12-22T06:24:00.662Z,0.83
2018-12-22T06:26:28.075Z,1.37
2018-12-22T06:28:55.520Z,1.30
2018-12-22T06:31:22.926Z,1.20
2018-12-22T06:33:50.419Z,1.97
2018-12-22T06:36:17.898Z,1.17
2018-12-22T06:38:45.423Z,1.07
2018-12-22T06:41:12.899Z,1.97
2018-12-22T06:43:40.302Z,1.00
2018-12-22T06:46:07.722Z,2.00
2018-12-22T06:48:35.114Z,1.83
2018-12-22T06:51:02.544Z,2.00
2018-12-22T06:53:29.973Z,1.90
2018-12-22T06:55:57.459Z,2.17
2018-12-22T06:58:24.931Z,1.97
2018-12-22T07:00:52.321Z,4.00
2018-12-22T07:03:19.764Z,2.33
2018-12-22T07:05:47.218Z,2.47
2018-12-22T07:08:14.721Z,2.67
2018-12-22T07:10:42.118Z,3.53
2018-12-22T07:13:10.346Z,2.97
2018-12-22T07:15:38.381Z,3.17
2018-12-22T07:18:05.803Z,4.60
2018-12-22T07:20:33.223Z,4.50
2018-12-22T07:23:00.679Z,4.90
2018-12-22T07:25:28.090Z,4.60
2018-12-22T07:27:55.562Z,3.30
2018-12-22T07:30:26.358Z,3.90
2018-12-22T07:32:56.823Z,3.83
2018-12-22T07:35:21.864Z,2.73
2018-12-22T07:37:49.290Z,3.47
2018-12-22T07:40:16.808Z,3.10
2018-12-22T07:42:44.228Z,3.07
2018-12-22T07:45:11.795Z,3.90
2018-12-22T07:47:39.188Z,3.97
2018-12-22T07:50:06.715Z,3.60
2018-12-22T07:52:34.128Z,1.93
2018-12-22T07:55:01.557Z,4.83
2018-12-22T07:57:28.949Z,4.83
2018-12-22T07:59:56.372Z,3.80
2018-12-22T08:02:23.877Z,2.90
2018-12-22T08:04:51.276Z,3.83
2018-12-22T08:07:18.865Z,3.97
2018-12-22T08:09:46.303Z,4.40
2018-12-22T08:12:13.728Z,4.80
2018-12-22T08:14:41.210Z,4.37
2018-12-22T08:17:08.605Z,3.97
2018-12-22T08:19:36.096Z,3.13
2018-12-22T08:22:03.812Z,3.43
2018-12-22T08:24:31.467Z,3.43
2018-12-22T08:26:58.884Z,3.70
2018-12-22T08:29:26.330Z,3.10
2018-12-22T08:31:53.814Z,3.70
2018-12-22T08:34:21.242Z,2.60
2018-12-22T08:36:48.647Z,3.67
2018-12-22T08:39:16.530Z,2.83
2018-12-22T08:41:44.014Z,2.60
2018-12-22T08:44:11.423Z,2.53
2018-12-22T08:46:38.927Z,3.60
2018-12-22T08:49:06.457Z,4.10
2018-12-22T08:51:33.867Z,2.90
2018-12-22T08:54:01.357Z,3.10
2018-12-22T08:56:28.856Z,3.57
2018-12-22T08:58:56.233Z,3.97
2018-12-22T09:01:23.651Z,3.97
2018-12-22T09:03:51.042Z,2.53
2018-12-22T09:06:18.436Z,3.20
2018-12-22T09:08:45.860Z,3.53
2018-12-22T09:11:13.341Z,1.90
2018-12-22T09:13:40.828Z,2.33
2018-12-22T09:16:08.252Z,3.17
2018-12-22T09:18:35.723Z,3.23
2018-12-22T09:21:03.241Z,3.00
2018-12-22T09:23:30.636Z,3.27
2018-12-22T09:25:58.027Z,3.20
2018-12-22T09:28:25.467Z,3.23
2018-12-22T09:31:00.569Z,3.43
2018-12-22T09:33:22.288Z,2.80
2018-12-22T09:35:49.685Z,2.43
2018-12-22T09:38:17.114Z,2.87
2018-12-22T09:40:44.512Z,3.40
2018-12-22T09:43:11.932Z,3.20
2018-12-22T09:45:39.326Z,3.50
2018-12-22T09:48:06.792Z,3.07
2018-12-22T09:50:34.176Z,2.80
2018-12-22T09:53:01.592Z,3.13
2018-12-22T09:55:29.041Z,3.27
2018-12-22T09:57:56.501Z,3.53
2018-12-22T10:00:24.908Z,3.87
2018-12-22T10:02:52.331Z,2.57
2018-12-22T10:05:19.750Z,2.60
2018-12-22T10:07:47.180Z,1.87
2018-12-22T10:10:15.758Z,5.10
2018-12-22T10:12:43.235Z,3.10
2018-12-22T10:15:10.659Z,3.33
2018-12-22T10:17:38.090Z,3.10
2018-12-22T10:20:06.152Z,4.17
2018-12-22T10:22:33.621Z,3.50
2018-12-22T10:25:01.055Z,3.20
2018-12-22T10:27:28.435Z,2.83
2018-12-22T10:29:55.832Z,3.30
2018-12-22T10:32:23.266Z,2.37
2018-12-22T10:34:50.770Z,2.77
2018-12-22T10:37:18.182Z,2.83
2018-12-22T10:39:45.603Z,3.37
2018-12-22T10:42:13.014Z,3.93
2018-12-22T10:44:40.411Z,3.03
2018-12-22T10:47:09.188Z,2.83
2018-12-22T10:49:36.780Z,2.50
2018-12-22T10:52:06.447Z,4.07
2018-12-22T10:54:40.975Z,3.73
2018-12-22T10:57:09.041Z,3.73
2018-12-22T10:59:36.473Z,4.37
2018-12-22T11:02:03.975Z,4.40
2018-12-22T11:04:31.380Z,4.83
2018-12-22T11:06:58.810Z,4.00
2018-12-22T11:09:26.233Z,4.67
2018-12-22T11:11:53.649Z,4.30
2018-12-22T11:14:22.861Z,4.20
2018-12-22T11:16:50.289Z,3.77
2018-12-22T11:19:17.760Z,4.67
2018-12-22T11:21:45.357Z,4.33
2018-12-22T11:24:12.839Z,4.20
2018-12-22T11:26:40.265Z,4.43
2018-12-22T11:29:07.693Z,4.57
2018-12-22T11:31:35.416Z,4.47
2018-12-22T11:34:02.987Z,4.07
2018-12-22T11:37:01.050Z,5.67
2018-12-22T11:39:28.534Z,4.43
2018-12-22T11:41:55.991Z,4.30
2018-12-22T11:44:23.455Z,3.37
2018-12-22T11:46:51.991Z,5.30
2018-12-22T11:49:34.749Z,4.60
2018-12-22T11:52:02.201Z,4.60
2018-12-22T11:54:29.615Z,4.27
2018-12-22T11:56:57.079Z,4.43
2018-12-22T11:59:24.695Z,3.80
2018-12-22T12:01:52.133Z,4.57
2018-12-22T12:04:19.529Z,4.73
2018-12-22T12:06:47.960Z,3.43
2018-12-22T12:09:15.391Z,3.97
2018-12-22T12:11:42.860Z,4.00
2018-12-22T12:14:10.262Z,2.93
2018-12-22T12:16:43.331Z,3.53
2018-12-22T12:19:15.956Z,3.80
2018-12-22T12:21:43.367Z,3.83
2018-12-22T12:24:10.751Z,3.80
2018-12-22T12:26:38.179Z,2.67
2018-12-22T12:29:05.607Z,3.40
2018-12-22T12:31:33.020Z,2.83
2018-12-22T12:34:00.407Z,3.60
2018-12-22T12:36:27.838Z,4.00
2018-12-22T12:38:55.258Z,2.93
2018-12-22T12:41:22.666Z,4.57
2018-12-22T12:43:50.063Z,3.13
2018-12-22T12:46:17.466Z,3.23
2018-12-22T12:48:44.900Z,2.30
2018-12-22T12:51:12.300Z,3.87
2018-12-22T12:53:39.696Z,3.17
2018-12-22T12:56:07.123Z,2.43
2018-12-22T12:58:34.578Z,3.13
2018-12-22T13:01:02.099Z,2.90
2018-12-22T13:03:29.505Z,2.63
2018-12-22T13:05:56.980Z,3.17
2018-12-22T13:08:24.392Z,2.83
2018-12-22T13:10:51.798Z,2.40
2018-12-22T13:13:29.232Z,2.47
2018-12-22T13:15:56.628Z,2.07
2018-12-22T13:18:24.030Z,3.13
2018-12-22T13:20:52.033Z,2.90
2018-12-22T13:23:19.500Z,2.17
2018-12-22T13:25:46.940Z,2.67
2018-12-22T13:28:14.333Z,2.10
2018-12-22T13:30:41.853Z,5.20
2018-12-22T13:33:09.337Z,2.10
2018-12-22T13:35:36.849Z,1.83
2018-12-22T13:38:04.377Z,2.00
2018-12-22T13:40:31.859Z,2.50
2018-12-22T13:42:59.265Z,2.27
2018-12-22T13:45:26.691Z,2.47
2018-12-22T13:47:54.430Z,2.20
2018-12-22T13:50:22.166Z,2.03
2018-12-22T13:52:49.776Z,2.03
2018-12-22T13:55:17.179Z,4.03
2018-12-22T13:57:44.567Z,4.17
2018-12-22T14:00:12.352Z,2.40
2018-12-22T14:02:40.115Z,2.23
2018-12-22T14:05:08.809Z,3.07
2018-12-22T14:07:36.195Z,3.47
2018-12-22T14:10:04.206Z,2.40
2018-12-22T14:12:31.611Z,2.47
2018-12-22T14:14:59.229Z,2.67
2018-12-22T14:17:29.017Z,2.20
2018-12-22T14:19:58.778Z,3.20
2018-12-22T14:22:26.505Z,2.70
2018-12-22T14:24:54.365Z,2.27
2018-12-22T14:27:21.758Z,2.10
2018-12-22T14:29:49.182Z,2.50
2018-12-22T14:32:17.016Z,2.43
2018-12-22T14:34:47.565Z,1.80
2018-12-22T14:37:15.091Z,2.57
2018-12-22T14:39:42.513Z,3.30
2018-12-22T14:42:09.891Z,2.57
2018-12-22T14:44:37.327Z,2.50
2018-12-22T14:47:04.863Z,2.37
2018-12-22T14:49:32.300Z,4.10
2018-12-22T14:51:59.781Z,2.33
2018-12-22T14:54:27.242Z,3.07
2018-12-22T14:56:54.832Z,1.80
2018-12-22T14:59:23.082Z,3.27
2018-12-22T15:01:52.423Z,2.83
2018-12-22T15:04:20.039Z,2.80
2018-12-22T15:06:47.487Z,4.07
2018-12-22T15:09:14.950Z,2.53
2018-12-22T15:11:42.386Z,6.87
2018-12-22T15:14:09.910Z,2.70
2018-12-22T15:16:37.383Z,2.43
2018-12-22T15:19:04.909Z,3.50
2018-12-22T15:21:32.331Z,2.87
2018-12-22T15:24:00.152Z,2.23
2018-12-22T15:26:30.291Z,2.43
2018-12-22T15:28:57.737Z,3.00
2018-12-22T15:31:25.371Z,3.20
2018-12-22T15:33:52.793Z,3.03
2018-12-22T15:36:20.281Z,3.10
2018-12-22T15:38:47.750Z,3.27
2018-12-22T15:41:15.165Z,2.20
2018-12-22T15:43:42.803Z,2.70
2018-12-22T15:46:10.217Z,2.90
2018-12-22T15:48:37.623Z,2.70
2018-12-22T15:51:05.199Z,3.13
2018-12-22T15:53:32.636Z,2.47
2018-12-22T15:56:00.037Z,2.77
2018-12-22T15:58:27.481Z,2.27
2018-12-22T16:00:54.936Z,3.17
2018-12-22T16:03:22.352Z,2.33
2018-12-22T16:05:49.792Z,2.27
2018-12-22T16:08:17.278Z,1.03
2018-12-22T16:10:44.729Z,2.83
2018-12-22T16:13:12.163Z,2.40
2018-12-22T16:15:39.623Z,2.97
2018-12-22T16:18:07.063Z,2.73
2018-12-22T16:20:34.474Z,2.93
2018-12-22T16:23:02.371Z,3.33
2018-12-22T16:25:30.033Z,3.20
2018-12-22T16:27:59.605Z,2.43
2018-12-22T16:30:31.188Z,3.83
2018-12-22T16:33:01.677Z,3.83
2018-12-22T16:35:29.463Z,3.33
2018-12-22T16:37:58.617Z,3.53
2018-12-22T16:40:26.219Z,4.13
2018-12-22T16:42:53.595Z,4.67
2018-12-22T16:45:21.021Z,4.13
2018-12-22T16:47:48.458Z,3.67
2018-12-22T16:50:15.895Z,2.60
2018-12-22T16:52:43.336Z,2.97
2018-12-22T16:55:11.506Z,2.90
2018-12-22T16:57:40.072Z,4.40
2018-12-22T17:00:09.636Z,3.13
2018-12-22T17:02:47.143Z,4.47
2018-12-22T17:05:14.620Z,3.67
2018-12-22T17:07:42.044Z,3.27
2018-12-22T17:10:09.512Z,2.97
2018-12-22T17:12:36.981Z,3.23
2018-12-22T17:15:05.086Z,2.53
2018-12-22T17:17:32.466Z,2.60
2018-12-22T17:19:59.899Z,2.93
2018-12-22T17:22:32.228Z,3.53
2018-12-22T17:25:01.394Z,2.50
2018-12-22T17:27:28.830Z,3.67
2018-12-22T17:29:56.269Z,3.60
2018-12-22T17:32:23.675Z,3.73
2018-12-22T17:34:51.084Z,3.53
2018-12-22T17:37:18.527Z,3.07
2018-12-22T17:39:45.948Z,4.10
2018-12-22T17:42:13.436Z,3.13
2018-12-22T17:44:40.845Z,3.00
2018-12-22T17:47:08.348Z,3.60
2018-12-22T17:49:35.949Z,3.57
2018-12-22T17:52:03.334Z,3.83
2018-12-22T17:54:30.721Z,3.63
2018-12-22T17:56:58.286Z,4.20
2018-12-22T17:59:25.739Z,4.53
2018-12-22T18:01:53.151Z,5.67
2018-12-22T18:04:20.651Z,4.80
2018-12-22T18:06:48.110Z,3.60
2018-12-22T18:09:15.583Z,3.70
2018-12-22T18:11:43.029Z,3.80
2018-12-22T18:14:10.495Z,3.67
2018-12-22T18:16:37.921Z,3.53
2018-12-22T18:19:05.504Z,5.03
2018-12-22T18:21:32.928Z,3.13
2018-12-22T18:24:00.324Z,4.53
2018-12-22T18:26:27.729Z,4.27
2018-12-22T18:28:55.132Z,4.67
2018-12-22T18:31:22.517Z,3.77
2018-12-22T18:33:49.942Z,3.93
2018-12-22T18:36:17.377Z,5.17
2018-12-22T18:38:44.790Z,4.37
2018-12-22T18:41:12.407Z,4.90
2018-12-22T18:43:39.846Z,3.90
2018-12-22T18:46:07.228Z,4.80
2018-12-22T18:48:34.616Z,3.40
2018-12-22T18:51:02.052Z,4.13
2018-12-22T18:53:29.493Z,4.43
2018-12-22T18:55:56.936Z,4.97
2018-12-22T18:58:24.351Z,4.17
2018-12-22T19:00:51.787Z,4.47
2018-12-22T19:03:19.188Z,4.33
2018-12-22T19:05:46.585Z,4.47
2018-12-22T19:08:14.656Z,5.60
2018-12-22T19:10:44.364Z,5.60
2018-12-22T19:13:11.779Z,4.83
2018-12-22T19:15:39.212Z,4.60
2018-12-22T19:18:06.622Z,6.33
2018-12-22T19:20:35.906Z,3.80
2018-12-22T19:23:03.415Z,4.93
2018-12-22T19:25:30.847Z,4.03
2018-12-22T19:27:58.453Z,4.10
2018-12-22T19:30:25.923Z,4.83
2018-12-22T19:32:53.467Z,4.33
2018-12-22T19:35:20.908Z,4.40
2018-12-22T19:37:48.283Z,4.67
2018-12-22T19:40:15.710Z,5.10
2018-12-22T19:42:46.815Z,4.97
2018-12-22T19:45:14.262Z,5.10
2018-12-22T19:47:41.901Z,4.90
2018-12-22T19:50:09.324Z,5.10
2018-12-22T19:52:36.788Z,4.87
2018-12-22T19:55:04.833Z,4.50
2018-12-22T19:57:32.545Z,4.90
2018-12-22T20:00:00.000Z,4.40
2018-12-22T20:02:27.408Z,5.20
2018-12-22T20:04:56.855Z,4.60
2018-12-22T20:07:24.249Z,4.30
2018-12-22T20:09:51.678Z,5.67
2018-12-22T20:12:19.126Z,5.03
2018-12-22T20:14:46.556Z,5.37
2018-12-22T20:17:14.035Z,5.50
2018-12-22T20:19:41.458Z,6.17
2018-12-22T20:22:08.863Z,5.17
2018-12-22T20:24:36.353Z,5.77
2018-12-22T20:27:03.788Z,6.27
2018-12-22T20:29:31.223Z,5.87
2018-12-22T20:31:58.657Z,5.27
2018-12-22T20:34:26.119Z,5.53
2018-12-22T20:36:53.556Z,5.93
2018-12-22T20:39:20.997Z,5.03
2018-12-22T20:41:48.419Z,5.70
2018-12-22T20:44:15.841Z,5.73
2018-12-22T20:46:43.279Z,6.13
2018-12-22T20:49:10.729Z,5.77
2018-12-22T20:51:38.737Z,7.30
2018-12-22T20:54:06.128Z,5.97
2018-12-22T20:56:33.560Z,6.27
2018-12-22T20:59:00.972Z,5.97
2018-12-22T21:01:28.389Z,5.63
2018-12-22T21:03:55.798Z,6.87
2018-12-22T21:06:26.508Z,6.37
2018-12-22T21:08:53.902Z,5.47
2018-12-22T21:11:21.329Z,6.10
2018-12-22T21:13:48.787Z,5.90
2018-12-22T21:16:16.233Z,7.43
2018-12-22T21:18:43.640Z,6.77
2018-12-22T21:21:11.126Z,6.47
2018-12-22T21:23:38.536Z,6.00
2018-12-22T21:26:06.052Z,5.30
2018-12-22T21:28:33.497Z,7.10
2018-12-22T21:31:00.927Z,6.20
2018-12-22T21:33:28.411Z,5.47
2018-12-22T21:35:56.042Z,5.80
2018-12-22T21:38:23.669Z,6.27
2018-12-22T21:40:53.063Z,6.13
2018-12-22T21:43:20.735Z,6.10
2018-12-22T21:45:48.262Z,7.07
2018-12-22T21:48:15.642Z,6.50
2018-12-22T21:50:43.093Z,6.80
2018-12-22T21:53:10.510Z,7.07
2018-12-22T21:55:37.913Z,6.63
2018-12-22T21:58:05.518Z,6.03
2018-12-22T22:00:33.045Z,6.93
2018-12-22T22:03:00.465Z,6.10
2018-12-22T22:05:27.903Z,6.30
2018-12-22T22:07:55.343Z,6.90
2018-12-22T22:10:22.879Z,5.97
2018-12-22T22:12:50.321Z,7.20
2018-12-22T22:15:17.730Z,6.63
2018-12-22T22:17:45.132Z,6.90
2018-12-22T22:20:12.563Z,7.30
2018-12-22T22:22:39.960Z,7.10
2018-12-22T22:25:07.428Z,7.80
2018-12-22T22:27:34.932Z,7.83
2018-12-22T22:30:02.366Z,7.27
2018-12-22T22:32:29.849Z,7.47
2018-12-22T22:34:57.313Z,6.57
2018-12-22T22:37:24.685Z,6.97
2018-12-22T22:39:52.116Z,7.17
2018-12-22T22:42:19.554Z,7.57
2018-12-22T22:44:46.952Z,7.30
2018-12-22T22:47:14.389Z,8.77
2018-12-22T22:49:41.788Z,6.63
2018-12-22T22:52:09.205Z,6.53
2018-12-22T22:54:36.615Z,7.53
2018-12-22T22:57:04.134Z,7.50
2018-12-22T22:59:31.519Z,7.33
2018-12-22T23:01:59.032Z,7.70
2018-12-22T23:04:26.494Z,6.73
2018-12-22T23:06:53.910Z,6.37
2018-12-22T23:09:21.322Z,7.60
2018-12-22T23:11:48.748Z,7.40
2018-12-22T23:14:16.143Z,6.80
2018-12-22T23:16:43.538Z,7.43
2018-12-22T23:19:10.966Z,6.70
2018-12-22T23:21:38.588Z,7.10
2018-12-22T23:24:05.985Z,7.13
2018-12-22T23:26:33.373Z,6.77
2018-12-22T23:29:00.813Z,6.80
2018-12-22T23:31:28.219Z,7.47
2018-12-22T23:33:55.638Z,6.27
2018-12-22T23:36:23.174Z,6.60
2018-12-22T23:38:50.596Z,7.07
2018-12-22T23:41:17.993Z,6.47
2018-12-22T23:43:45.431Z,5.67
2018-12-22T23:46:12.805Z,6.57
2018-12-22T23:48:40.219Z,6.40
2018-12-22T23:51:07.688Z,7.33
2018-12-22T23:53:35.094Z,6.73
2018-12-22T23:56:02.507Z,6.27
2018-12-22T23:58:29.942Z,6.57
